Kinston Regional Jetport At Stallings Field Kinston US
ICAO: KISO
IATA: ISO
Category: Medium
Scheduled Services: No

Elevation: 93 ft
TransAlt. 18000 ft.

Airport Communications:
SEYMOUR JOHN APP/DEP:127.3
AWOS 3:132.75
CTAF:120.6
GND:121.9
RALEIGH RDO:109.6
TWR:120.6
UNICOM:122.95

KISO Zoom In..

Runways:

(A) RW 05 length 11500 ft width 150 ft
ILS 111.30 / hdg 50

(B) RW 23 length 11500 ft width 150 ft
---- / hdg 230

Location; KISO
Day. 24 / Time. 12.56 Zulu
* Altimeter: 30.15
* Temperature: 25° c. 77°f.
* Wind from: 080° Speed 10 kn.
Dewpoint: 19° c.
Visibility: 10 Statute Miles.
Clouds: Clear (manual report).

KISO 241256Z COR 08010KT 10SM SKC 25/19 A3015


Wind From 080°
Speed 10 kn.

 
 
jpsmedia.com for Web Design SOUNDCLOUD worldairports.se 2018   terms of use